sensor_id;sensor_type;location;lat;lon;timestamp;pressure;altitude;pressure_sealevel;temperature;humidity
11395;BME280;5753;54.402;10.220;2023-04-21T00:00:00;102383.00;;;15.94;46.02
11395;BME280;5753;54.402;10.220;2023-04-21T00:02:26;102388.88;;;16.32;45.09
11395;BME280;5753;54.402;10.220;2023-04-21T00:04:53;102397.25;;;17.23;43.55
11395;BME280;5753;54.402;10.220;2023-04-21T00:07:21;102387.72;;;15.68;47.00
11395;BME280;5753;54.402;10.220;2023-04-21T00:09:47;102391.25;;;16.19;45.18
11395;BME280;5753;54.402;10.220;2023-04-21T00:12:13;102379.75;;;17.83;41.88
11395;BME280;5753;54.402;10.220;2023-04-21T00:14:39;102374.34;;;16.47;44.54
11395;BME280;5753;54.402;10.220;2023-04-21T00:17:05;102389.81;;;14.69;48.55
11395;BME280;5753;54.402;10.220;2023-04-21T00:19:32;102385.84;;;16.58;44.41
11395;BME280;5753;54.402;10.220;2023-04-21T00:21:59;102382.28;;;14.43;48.63
11395;BME280;5753;54.402;10.220;2023-04-21T00:24:26;102387.13;;;15.03;47.50
11395;BME280;5753;54.402;10.220;2023-04-21T00:26:52;102389.97;;;14.42;48.84
11395;BME280;5753;54.402;10.220;2023-04-21T00:29:18;102379.44;;;15.47;46.31
11395;BME280;5753;54.402;10.220;2023-04-21T00:31:44;102378.75;;;15.14;46.64
11395;BME280;5753;54.402;10.220;2023-04-21T00:34:10;102381.41;;;17.08;42.67
11395;BME280;5753;54.402;10.220;2023-04-21T00:36:36;102373.97;;;16.75;42.56
11395;BME280;5753;54.402;10.220;2023-04-21T00:39:02;102360.00;;;15.69;45.67
11395;BME280;5753;54.402;10.220;2023-04-21T00:41:29;102371.44;;;17.43;41.93
11395;BME280;5753;54.402;10.220;2023-04-21T00:44:02;102374.94;;;16.80;42.83
11395;BME280;5753;54.402;10.220;2023-04-21T00:46:29;102377.06;;;15.58;45.04
11395;BME280;5753;54.402;10.220;2023-04-21T00:48:56;102362.16;;;15.93;44.34
11395;BME280;5753;54.402;10.220;2023-04-21T00:51:22;102367.41;;;17.02;41.90
11395;BME280;5753;54.402;10.220;2023-04-21T00:53:49;102368.59;;;16.13;43.58
11395;BME280;5753;54.402;10.220;2023-04-21T00:56:16;102357.88;;;15.96;44.28
11395;BME280;5753;54.402;10.220;2023-04-21T00:58:45;102368.06;;;15.42;45.47
11395;BME280;5753;54.402;10.220;2023-04-21T01:01:12;102360.97;;;15.76;44.71
11395;BME280;5753;54.402;10.220;2023-04-21T01:03:38;102357.22;;;15.19;45.13
11395;BME280;5753;54.402;10.220;2023-04-21T01:06:04;102370.38;;;16.65;43.06
11395;BME280;5753;54.402;10.220;2023-04-21T01:08:30;102366.56;;;15.53;44.38
11395;BME280;5753;54.402;10.220;2023-04-21T01:10:57;102365.59;;;15.48;45.36
11395;BME280;5753;54.402;10.220;2023-04-21T01:13:23;102358.09;;;15.20;45.69
11395;BME280;5753;54.402;10.220;2023-04-21T01:15:49;102366.72;;;16.06;44.09
11395;BME280;5753;54.402;10.220;2023-04-21T01:18:15;102352.31;;;17.43;41.16
11395;BME280;5753;54.402;10.220;2023-04-21T01:20:43;102356.00;;;14.31;47.42
11395;BME280;5753;54.402;10.220;2023-04-21T01:23:09;102359.56;;;15.51;45.64
11395;BME280;5753;54.402;10.220;2023-04-21T01:25:36;102355.63;;;15.68;45.13
11395;BME280;5753;54.402;10.220;2023-04-21T01:28:02;102364.03;;;15.14;46.52
11395;BME280;5753;54.402;10.220;2023-04-21T01:30:28;102357.19;;;14.80;47.04
11395;BME280;5753;54.402;10.220;2023-04-21T01:32:54;102349.22;;;15.96;44.83
11395;BME280;5753;54.402;10.220;2023-04-21T01:35:23;102343.41;;;15.22;45.65
11395;BME280;5753;54.402;10.220;2023-04-21T01:37:49;102350.66;;;14.60;47.60
11395;BME280;5753;54.402;10.220;2023-04-21T01:40:15;102344.59;;;14.59;46.41
11395;BME280;5753;54.402;10.220;2023-04-21T01:42:42;102347.38;;;14.32;47.73
11395;BME280;5753;54.402;10.220;2023-04-21T01:45:09;102345.91;;;16.06;44.58
11395;BME280;5753;54.402;10.220;2023-04-21T01:47:35;102344.63;;;14.26;48.07
11395;BME280;5753;54.402;10.220;2023-04-21T01:50:01;102340.94;;;16.18;44.11
11395;BME280;5753;54.402;10.220;2023-04-21T01:52:28;102349.75;;;14.23;47.85
11395;BME280;5753;54.402;10.220;2023-04-21T01:54:54;102338.47;;;14.57;46.40
11395;BME280;5753;54.402;10.220;2023-04-21T01:57:21;102345.41;;;16.27;44.08
11395;BME280;5753;54.402;10.220;2023-04-21T01:59:47;102334.16;;;15.36;44.69
11395;BME280;5753;54.402;10.220;2023-04-21T02:02:14;102339.84;;;17.16;41.51
11395;BME280;5753;54.402;10.220;2023-04-21T02:04:40;102337.56;;;16.77;42.16
11395;BME280;5753;54.402;10.220;2023-04-21T02:07:06;102333.41;;;15.85;43.30
11395;BME280;5753;54.402;10.220;2023-04-21T02:09:32;102332.47;;;16.31;43.16
11395;BME280;5753;54.402;10.220;2023-04-21T02:11:59;102330.47;;;16.14;43.73
11395;BME280;5753;54.402;10.220;2023-04-21T02:14:25;102334.38;;;16.42;42.73
11395;BME280;5753;54.402;10.220;2023-04-21T02:16:52;102321.63;;;16.05;43.02
11395;BME280;5753;54.402;10.220;2023-04-21T02:19:18;102330.31;;;14.76;46.06
11395;BME280;5753;54.402;10.220;2023-04-21T02:21:44;102319.47;;;15.38;44.63
11395;BME280;5753;54.402;10.220;2023-04-21T02:24:10;102314.69;;;15.58;44.48
11395;BME280;5753;54.402;10.220;2023-04-21T02:26:36;102321.44;;;14.67;47.00
11395;BME280;5753;54.402;10.220;2023-04-21T02:29:02;102323.34;;;16.05;43.69
11395;BME280;5753;54.402;10.220;2023-04-21T02:31:29;102317.41;;;14.43;46.68
11395;BME280;5753;54.402;10.220;2023-04-21T02:33:55;102314.19;;;15.76;43.82
11395;BME280;5753;54.402;10.220;2023-04-21T02:36:21;102315.03;;;15.74;44.34
11395;BME280;5753;54.402;10.220;2023-04-21T02:38:47;102316.91;;;17.61;40.42
11395;BME280;5753;54.402;10.220;2023-04-21T02:41:13;102318.75;;;17.00;41.43
11395;BME280;5753;54.402;10.220;2023-04-21T02:43:39;102327.00;;;16.67;41.88
11395;BME280;5753;54.402;10.220;2023-04-21T02:46:06;102318.19;;;17.23;40.91
11395;BME280;5753;54.402;10.220;2023-04-21T02:48:33;102315.50;;;15.57;43.95
11395;BME280;5753;54.402;10.220;2023-04-21T02:51:00;102319.53;;;15.41;44.71
11395;BME280;5753;54.402;10.220;2023-04-21T02:53:26;102313.22;;;17.43;40.83
11395;BME280;5753;54.402;10.220;2023-04-21T02:55:52;102310.28;;;15.55;44.47
11395;BME280;5753;54.402;10.220;2023-04-21T02:58:18;102317.66;;;16.26;43.23
11395;BME280;5753;54.402;10.220;2023-04-21T03:00:44;102312.94;;;16.56;42.88
11395;BME280;5753;54.402;10.220;2023-04-21T03:03:10;102314.34;;;16.93;41.80
11395;BME280;5753;54.402;10.220;2023-04-21T03:05:36;102309.69;;;17.39;40.63
11395;BME280;5753;54.402;10.220;2023-04-21T03:08:02;102303.63;;;17.40;40.53
11395;BME280;5753;54.402;10.220;2023-04-21T03:10:29;102308.66;;;17.25;41.25
11395;BME280;5753;54.402;10.220;2023-04-21T03:12:55;102300.97;;;17.37;41.11
11395;BME280;5753;54.402;10.220;2023-04-21T03:15:22;102299.34;;;17.47;40.64
11395;BME280;5753;54.402;10.220;2023-04-21T03:17:48;102300.66;;;17.87;40.27
11395;BME280;5753;54.402;10.220;2023-04-21T03:20:14;102297.78;;;17.59;40.72
11395;BME280;5753;54.402;10.220;2023-04-21T03:22:41;102300.94;;;16.10;44.20
11395;BME280;5753;54.402;10.220;2023-04-21T03:25:07;102288.09;;;16.21;43.90
11395;BME280;5753;54.402;10.220;2023-04-21T03:27:33;102284.63;;;16.20;43.98
11395;BME280;5753;54.402;10.220;2023-04-21T03:30:00;102292.34;;;16.70;43.76
11395;BME280;5753;54.402;10.220;2023-04-21T03:32:26;102290.00;;;16.91;42.83
11395;BME280;5753;54.402;10.220;2023-04-21T03:34:52;102286.47;;;16.86;43.19
11395;BME280;5753;54.402;10.220;2023-04-21T03:37:18;102284.19;;;17.11;42.47
11395;BME280;5753;54.402;10.220;2023-04-21T03:39:44;102281.66;;;17.17;42.42
11395;BME280;5753;54.402;10.220;2023-04-21T03:42:10;102281.13;;;17.50;41.68
11395;BME280;5753;54.402;10.220;2023-04-21T03:44:36;102285.75;;;16.37;43.77
11395;BME280;5753;54.402;10.220;2023-04-21T03:47:02;102283.19;;;15.42;46.01
11395;BME280;5753;54.402;10.220;2023-04-21T03:49:29;102278.38;;;14.76;47.93
11395;BME280;5753;54.402;10.220;2023-04-21T03:51:55;102279.69;;;17.00;42.87
11395;BME280;5753;54.402;10.220;2023-04-21T03:54:21;102278.78;;;15.84;45.25
11395;BME280;5753;54.402;10.220;2023-04-21T03:56:47;102272.44;;;16.75;43.31
11395;BME280;5753;54.402;10.220;2023-04-21T03:59:13;102272.59;;;16.87;42.45
11395;BME280;5753;54.402;10.220;2023-04-21T04:01:40;102276.78;;;16.75;43.07
11395;BME280;5753;54.402;10.220;2023-04-21T04:04:07;102277.25;;;15.96;45.04
11395;BME280;5753;54.402;10.220;2023-04-21T04:06:33;102282.28;;;16.38;44.10
11395;BME280;5753;54.402;10.220;2023-04-21T04:09:00;102276.44;;;14.66;47.13
11395;BME280;5753;54.402;10.220;2023-04-21T04:11:30;102281.28;;;15.78;45.48
11395;BME280;5753;54.402;10.220;2023-04-21T04:13:56;102276.25;;;15.87;45.07
11395;BME280;5753;54.402;10.220;2023-04-21T04:16:22;102272.94;;;15.50;45.58
11395;BME280;5753;54.402;10.220;2023-04-21T04:18:49;102277.34;;;15.54;45.26
11395;BME280;5753;54.402;10.220;2023-04-21T04:21:16;102281.97;;;16.17;44.30
11395;BME280;5753;54.402;10.220;2023-04-21T04:23:42;102283.38;;;16.00;44.22
11395;BME280;5753;54.402;10.220;2023-04-21T04:26:09;102282.78;;;17.42;41.66
11395;BME280;5753;54.402;10.220;2023-04-21T04:28:36;102280.72;;;17.12;42.13
11395;BME280;5753;54.402;10.220;2023-04-21T04:31:02;102284.19;;;16.52;43.26
11395;BME280;5753;54.402;10.220;2023-04-21T04:33:28;102275.03;;;16.75;42.43
11395;BME280;5753;54.402;10.220;2023-04-21T04:35:55;102278.13;;;15.97;43.83
11395;BME280;5753;54.402;10.220;2023-04-21T04:38:23;102274.19;;;15.67;43.84
11395;BME280;5753;54.402;10.220;2023-04-21T04:40:55;102269.09;;;16.85;41.90
11395;BME280;5753;54.402;10.220;2023-04-21T04:43:23;102273.22;;;16.68;42.27
11395;BME280;5753;54.402;10.220;2023-04-21T04:45:50;102283.66;;;14.07;48.38
11395;BME280;5753;54.402;10.220;2023-04-21T04:48:16;102274.16;;;17.49;41.32
11395;BME280;5753;54.402;10.220;2023-04-21T04:50:42;102281.41;;;17.73;40.68
11395;BME280;5753;54.402;10.220;2023-04-21T04:53:09;102279.28;;;16.67;42.70
11395;BME280;5753;54.402;10.220;2023-04-21T04:55:35;102285.81;;;17.80;40.61
11395;BME280;5753;54.402;10.220;2023-04-21T04:58:01;102286.41;;;16.24;43.22
11395;BME280;5753;54.402;10.220;2023-04-21T05:00:27;102281.91;;;17.41;41.20
11395;BME280;5753;54.402;10.220;2023-04-21T05:02:54;102280.41;;;16.28;43.46
11395;BME280;5753;54.402;10.220;2023-04-21T05:05:20;102281.91;;;16.68;43.05
11395;BME280;5753;54.402;10.220;2023-04-21T05:07:47;102281.91;;;17.41;41.26
11395;BME280;5753;54.402;10.220;2023-04-21T05:10:13;102282.09;;;16.26;43.71
11395;BME280;5753;54.402;10.220;2023-04-21T05:12:39;102281.25;;;16.86;42.42
11395;BME280;5753;54.402;10.220;2023-04-21T05:15:06;102286.16;;;18.19;40.40
11395;BME280;5753;54.402;10.220;2023-04-21T05:17:35;102289.41;;;17.91;40.54
11395;BME280;5753;54.402;10.220;2023-04-21T05:20:03;102285.75;;;17.71;41.07
11395;BME280;5753;54.402;10.220;2023-04-21T05:22:29;102285.28;;;18.16;40.39
11395;BME280;5753;54.402;10.220;2023-04-21T05:24:56;102290.09;;;17.73;41.34
11395;BME280;5753;54.402;10.220;2023-04-21T05:27:22;102285.00;;;17.07;42.71
11395;BME280;5753;54.402;10.220;2023-04-21T05:29:48;102283.41;;;17.18;42.45
11395;BME280;5753;54.402;10.220;2023-04-21T05:32:14;102291.22;;;16.56;42.92
11395;BME280;5753;54.402;10.220;2023-04-21T05:34:40;102291.09;;;17.86;40.91
11395;BME280;5753;54.402;10.220;2023-04-21T05:37:08;102284.09;;;19.00;38.89
11395;BME280;5753;54.402;10.220;2023-04-21T05:39:34;102284.88;;;18.85;38.89
11395;BME280;5753;54.402;10.220;2023-04-21T05:42:01;102291.84;;;16.40;43.20
11395;BME280;5753;54.402;10.220;2023-04-21T05:44:27;102289.31;;;17.03;41.26
11395;BME280;5753;54.402;10.220;2023-04-21T05:46:53;102293.19;;;18.30;39.57
11395;BME280;5753;54.402;10.220;2023-04-21T05:49:19;102288.50;;;17.09;41.04
11395;BME280;5753;54.402;10.220;2023-04-21T05:51:45;102285.16;;;17.19;41.21
11395;BME280;5753;54.402;10.220;2023-04-21T05:54:11;102287.47;;;17.69;40.69
11395;BME280;5753;54.402;10.220;2023-04-21T05:56:37;102290.03;;;18.73;38.91
11395;BME280;5753;54.402;10.220;2023-04-21T05:59:04;102291.50;;;18.35;39.52
11395;BME280;5753;54.402;10.220;2023-04-21T06:01:31;102283.25;;;17.84;40.01
11395;BME280;5753;54.402;10.220;2023-04-21T06:03:58;102285.31;;;16.10;43.35
11395;BME280;5753;54.402;10.220;2023-04-21T06:06:25;102288.97;;;16.21;44.04
11395;BME280;5753;54.402;10.220;2023-04-21T06:08:52;102300.03;;;18.12;39.63
11395;BME280;5753;54.402;10.220;2023-04-21T06:11:18;102290.19;;;19.04;38.18
11395;BME280;5753;54.402;10.220;2023-04-21T06:13:44;102297.63;;;17.47;40.49
11395;BME280;5753;54.402;10.220;2023-04-21T06:16:11;102290.28;;;19.34;37.66
11395;BME280;5753;54.402;10.220;2023-04-21T06:18:37;102290.16;;;17.79;40.15
11395;BME280;5753;54.402;10.220;2023-04-21T06:21:03;102282.16;;;18.64;38.72
11395;BME280;5753;54.402;10.220;2023-04-21T06:23:29;102279.09;;;20.02;36.66
11395;BME280;5753;54.402;10.220;2023-04-21T06:26:05;102269.84;;;18.46;38.14
11395;BME280;5753;54.402;10.220;2023-04-21T06:28:33;102273.09;;;17.30;40.97
11395;BME280;5753;54.402;10.220;2023-04-21T06:31:00;102273.78;;;16.52;42.54
11395;BME280;5753;54.402;10.220;2023-04-21T06:33:26;102278.94;;;17.88;39.98
11395;BME280;5753;54.402;10.220;2023-04-21T06:35:53;102276.31;;;17.86;39.40
11395;BME280;5753;54.402;10.220;2023-04-21T06:38:19;102273.16;;;18.27;38.86
11395;BME280;5753;54.402;10.220;2023-04-21T06:40:46;102266.38;;;18.49;38.75
11395;BME280;5753;54.402;10.220;2023-04-21T06:43:12;102269.16;;;18.76;38.45
11395;BME280;5753;54.402;10.220;2023-04-21T06:45:38;102273.38;;;17.54;40.47
11395;BME280;5753;54.402;10.220;2023-04-21T06:48:04;102258.88;;;19.22;37.74
11395;BME280;5753;54.402;10.220;2023-04-21T06:50:30;102267.09;;;17.37;40.71
11395;BME280;5753;54.402;10.220;2023-04-21T06:52:56;102255.50;;;20.21;36.20
11395;BME280;5753;54.402;10.220;2023-04-21T06:55:23;102251.88;;;19.06;37.48
11395;BME280;5753;54.402;10.220;2023-04-21T06:57:49;102250.31;;;20.01;36.67
11395;BME280;5753;54.402;10.220;2023-04-21T07:00:15;102252.03;;;19.68;36.66
11395;BME280;5753;54.402;10.220;2023-04-21T07:02:41;102250.13;;;19.08;38.26
11395;BME280;5753;54.402;10.220;2023-04-21T07:05:07;102249.09;;;17.58;39.78
11395;BME280;5753;54.402;10.220;2023-04-21T07:07:34;102253.47;;;18.73;39.12
11395;BME280;5753;54.402;10.220;2023-04-21T07:10:00;102253.78;;;19.65;37.34
11395;BME280;5753;54.402;10.220;2023-04-21T07:12:26;102237.22;;;19.72;37.18
11395;BME280;5753;54.402;10.220;2023-04-21T07:14:52;102246.69;;;19.26;38.05
11395;BME280;5753;54.402;10.220;2023-04-21T07:17:18;102252.91;;;20.04;37.18
11395;BME280;5753;54.402;10.220;2023-04-21T07:19:44;102252.41;;;21.55;34.25
11395;BME280;5753;54.402;10.220;2023-04-21T07:22:11;102250.28;;;20.21;35.82
11395;BME280;5753;54.402;10.220;2023-04-21T07:24:37;102252.06;;;19.91;37.43
11395;BME280;5753;54.402;10.220;2023-04-21T07:27:04;102245.88;;;20.58;35.83
11395;BME280;5753;54.402;10.220;2023-04-21T07:29:30;102258.13;;;17.97;40.23
11395;BME280;5753;54.402;10.220;2023-04-21T07:31:57;102246.19;;;18.27;39.42
11395;BME280;5753;54.402;10.220;2023-04-21T07:34:23;102239.78;;;20.45;35.94
11395;BME280;5753;54.402;10.220;2023-04-21T07:36:54;102239.53;;;21.09;35.07
11395;BME280;5753;54.402;10.220;2023-04-21T07:39:20;102240.28;;;18.55;39.13
11395;BME280;5753;54.402;10.220;2023-04-21T07:41:46;102239.19;;;21.67;34.37
11395;BME280;5753;54.402;10.220;2023-04-21T07:44:12;102239.59;;;20.97;34.81
11395;BME280;5753;54.402;10.220;2023-04-21T07:46:39;102236.97;;;18.85;38.48
11395;BME280;5753;54.402;10.220;2023-04-21T07:49:05;102243.19;;;20.68;35.40
11395;BME280;5753;54.402;10.220;2023-04-21T07:51:31;102232.81;;;20.17;36.61
11395;BME280;5753;54.402;10.220;2023-04-21T07:53:57;102246.66;;;20.86;35.08
11395;BME280;5753;54.402;10.220;2023-04-21T07:56:23;102241.56;;;19.55;37.48
11395;BME280;5753;54.402;10.220;2023-04-21T07:58:49;102237.22;;;19.96;36.84
11395;BME280;5753;54.402;10.220;2023-04-21T08:01:15;102235.78;;;21.56;34.78
11395;BME280;5753;54.402;10.220;2023-04-21T08:03:42;102237.66;;;18.49;38.92
11395;BME280;5753;54.402;10.220;2023-04-21T08:06:08;102238.00;;;22.08;34.50
11395;BME280;5753;54.402;10.220;2023-04-21T08:08:34;102235.47;;;19.66;36.82
11395;BME280;5753;54.402;10.220;2023-04-21T08:11:00;102244.06;;;22.16;33.83
11395;BME280;5753;54.402;10.220;2023-04-21T08:13:27;102239.56;;;22.28;33.21
11395;BME280;5753;54.402;10.220;2023-04-21T08:15:53;102239.78;;;19.44;37.78
11395;BME280;5753;54.402;10.220;2023-04-21T08:18:20;102243.16;;;19.01;38.23
11395;BME280;5753;54.402;10.220;2023-04-21T08:20:46;102235.47;;;20.06;36.92
11395;BME280;5753;54.402;10.220;2023-04-21T08:23:17;102232.81;;;19.49;37.60
11395;BME280;5753;54.402;10.220;2023-04-21T08:25:43;102234.50;;;19.29;38.51
11395;BME280;5753;54.402;10.220;2023-04-21T08:28:09;102229.34;;;20.05;36.21
11395;BME280;5753;54.402;10.220;2023-04-21T08:30:35;102232.81;;;20.23;37.84
11395;BME280;5753;54.402;10.220;2023-04-21T08:33:01;102233.72;;;20.09;37.01
11395;BME280;5753;54.402;10.220;2023-04-21T08:35:27;102230.56;;;21.51;34.93
11395;BME280;5753;54.402;10.220;2023-04-21T08:37:54;102227.41;;;18.88;38.20
11395;BME280;5753;54.402;10.220;2023-04-21T08:40:20;102228.09;;;18.52;39.01
11395;BME280;5753;54.402;10.220;2023-04-21T08:42:47;102218.84;;;19.50;36.86
11395;BME280;5753;54.402;10.220;2023-04-21T08:45:13;102222.50;;;21.77;34.75
11395;BME280;5753;54.402;10.220;2023-04-21T08:47:40;102217.66;;;21.12;35.72
11395;BME280;5753;54.402;10.220;2023-04-21T08:50:12;102221.75;;;18.12;39.60
11395;BME280;5753;54.402;10.220;2023-04-21T08:52:38;102222.16;;;18.82;39.32
11395;BME280;5753;54.402;10.220;2023-04-21T08:55:06;102225.72;;;20.81;35.50
11395;BME280;5753;54.402;10.220;2023-04-21T08:57:32;102221.50;;;20.04;36.86
11395;BME280;5753;54.402;10.220;2023-04-21T08:59:59;102232.75;;;20.62;35.50
11395;BME280;5753;54.402;10.220;2023-04-21T09:02:25;102216.38;;;21.75;34.81
11395;BME280;5753;54.402;10.220;2023-04-21T09:04:51;102216.09;;;20.79;35.47
11395;BME280;5753;54.402;10.220;2023-04-21T09:07:31;102228.38;;;20.64;35.93
11395;BME280;5753;54.402;10.220;2023-04-21T09:09:58;102213.63;;;20.42;36.12
11395;BME280;5753;54.402;10.220;2023-04-21T09:12:28;102211.44;;;18.37;39.41
11395;BME280;5753;54.402;10.220;2023-04-21T09:14:55;102217.13;;;19.86;36.84
11395;BME280;5753;54.402;10.220;2023-04-21T09:17:28;102225.31;;;22.49;34.13
11395;BME280;5753;54.402;10.220;2023-04-21T09:20:19;102220.38;;;20.98;35.98
11395;BME280;5753;54.402;10.220;2023-04-21T09:22:48;102217.03;;;19.10;38.25
11395;BME280;5753;54.402;10.220;2023-04-21T09:25:19;102217.63;;;22.34;34.35
11395;BME280;5753;54.402;10.220;2023-04-21T09:27:46;102224.03;;;20.60;36.31
11395;BME280;5753;54.402;10.220;2023-04-21T09:30:14;102214.47;;;20.46;35.84
11395;BME280;5753;54.402;10.220;2023-04-21T09:32:43;102221.41;;;20.60;36.29
11395;BME280;5753;54.402;10.220;2023-04-21T09:35:10;102222.38;;;20.01;36.32
11395;BME280;5753;54.402;10.220;2023-04-21T09:37:37;102220.16;;;23.12;33.02
11395;BME280;5753;54.402;10.220;2023-04-21T09:40:04;102220.38;;;22.23;34.00
11395;BME280;5753;54.402;10.220;2023-04-21T09:42:32;102216.47;;;23.26;33.07
11395;BME280;5753;54.402;10.220;2023-04-21T09:44:58;102227.53;;;19.37;38.17
11395;BME280;5753;54.402;10.220;2023-04-21T09:47:25;102221.13;;;22.33;34.08
11395;BME280;5753;54.402;10.220;2023-04-21T09:49:54;102217.81;;;22.13;34.55
11395;BME280;5753;54.402;10.220;2023-04-21T09:52:20;102214.75;;;23.24;32.87
11395;BME280;5753;54.402;10.220;2023-04-21T09:54:55;102210.63;;;22.33;34.29
11395;BME280;5753;54.402;10.220;2023-04-21T09:57:25;102216.91;;;22.95;32.31
11395;BME280;5753;54.402;10.220;2023-04-21T10:00:00;102211.31;;;23.19;33.40
11395;BME280;5753;54.402;10.220;2023-04-21T10:02:29;102198.44;;;23.58;32.41
11395;BME280;5753;54.402;10.220;2023-04-21T10:04:56;102220.31;;;21.10;35.24
11395;BME280;5753;54.402;10.220;2023-04-21T10:07:23;102201.84;;;23.66;32.29
11395;BME280;5753;54.402;10.220;2023-04-21T10:09:52;102211.66;;;20.93;36.61
11395;BME280;5753;54.402;10.220;2023-04-21T10:12:19;102206.56;;;20.61;36.62
11395;BME280;5753;54.402;10.220;2023-04-21T10:14:56;102207.16;;;21.16;36.80
11395;BME280;5753;54.402;10.220;2023-04-21T10:17:26;102208.75;;;21.45;35.53
11395;BME280;5753;54.402;10.220;2023-04-21T10:19:53;102203.75;;;22.95;32.93
11395;BME280;5753;54.402;10.220;2023-04-21T10:22:29;102200.03;;;21.41;35.02
11395;BME280;5753;54.402;10.220;2023-04-21T10:24:58;102197.88;;;20.30;36.08
11395;BME280;5753;54.402;10.220;2023-04-21T10:27:35;102214.19;;;21.10;35.93
11395;BME280;5753;54.402;10.220;2023-04-21T10:30:21;102190.03;;;23.35;32.75
11395;BME280;5753;54.402;10.220;2023-04-21T10:32:48;102190.69;;;24.00;32.18
11395;BME280;5753;54.402;10.220;2023-04-21T10:35:59;102193.22;;;23.55;33.72
11395;BME280;5753;54.402;10.220;2023-04-21T10:38:40;102182.13;;;20.56;36.12
11395;BME280;5753;54.402;10.220;2023-04-21T10:41:25;102182.97;;;20.59;37.57
11395;BME280;5753;54.402;10.220;2023-04-21T10:44:11;102175.66;;;22.97;34.74
11395;BME280;5753;54.402;10.220;2023-04-21T10:46:51;102178.13;;;22.42;34.84
11395;BME280;5753;54.402;10.220;2023-04-21T10:49:26;102185.53;;;22.80;34.09
11395;BME280;5753;54.402;10.220;2023-04-21T10:54:27;102176.22;;;22.53;33.71
11395;BME280;5753;54.402;10.220;2023-04-21T10:56:54;102176.78;;;22.78;34.33
11395;BME280;5753;54.402;10.220;2023-04-21T10:59:21;102166.38;;;23.85;33.01
11395;BME280;5753;54.402;10.220;2023-04-21T11:01:47;102167.59;;;24.60;31.73
11395;BME280;5753;54.402;10.220;2023-04-21T11:04:14;102166.88;;;24.92;31.83
11395;BME280;5753;54.402;10.220;2023-04-21T11:06:41;102166.22;;;23.41;33.55
11395;BME280;5753;54.402;10.220;2023-04-21T11:09:07;102170.91;;;21.76;35.60
11395;BME280;5753;54.402;10.220;2023-04-21T11:11:34;102153.38;;;23.22;33.49
11395;BME280;5753;54.402;10.220;2023-04-21T11:14:05;102156.97;;;23.18;34.04
11395;BME280;5753;54.402;10.220;2023-04-21T11:16:31;102150.50;;;25.17;31.26
11395;BME280;5753;54.402;10.220;2023-04-21T11:18:58;102150.72;;;24.24;32.99
11395;BME280;5753;54.402;10.220;2023-04-21T11:21:24;102145.44;;;26.11;29.96
11395;BME280;5753;54.402;10.220;2023-04-21T11:23:53;102154.34;;;23.15;34.05
11395;BME280;5753;54.402;10.220;2023-04-21T11:26:32;102148.75;;;25.17;31.55
11395;BME280;5753;54.402;10.220;2023-04-21T11:29:03;102144.94;;;24.90;31.52
11395;BME280;5753;54.402;10.220;2023-04-21T11:31:31;102145.78;;;24.91;31.53
11395;BME280;5753;54.402;10.220;2023-04-21T11:33:59;102143.53;;;23.88;32.74
11395;BME280;5753;54.402;10.220;2023-04-21T11:36:25;102137.53;;;23.79;32.87
11395;BME280;5753;54.402;10.220;2023-04-21T11:38:52;102134.28;;;23.08;33.90
11395;BME280;5753;54.402;10.220;2023-04-21T11:41:22;102135.38;;;23.49;34.15
11395;BME280;5753;54.402;10.220;2023-04-21T11:43:50;102131.06;;;23.96;33.22
11395;BME280;5753;54.402;10.220;2023-04-21T11:46:27;102132.28;;;25.41;31.18
11395;BME280;5753;54.402;10.220;2023-04-21T11:49:09;102125.09;;;25.13;31.84
11395;BME280;5753;54.402;10.220;2023-04-21T11:51:38;102121.75;;;25.04;31.27
11395;BME280;5753;54.402;10.220;2023-04-21T11:54:07;102116.81;;;24.06;33.54
11395;BME280;5753;54.402;10.220;2023-04-21T11:56:40;102108.00;;;25.95;30.95
11395;BME280;5753;54.402;10.220;2023-04-21T11:59:08;102114.91;;;26.89;29.64
11395;BME280;5753;54.402;10.220;2023-04-21T12:01:34;102104.28;;;26.32;29.58
11395;BME280;5753;54.402;10.220;2023-04-21T12:04:13;102102.88;;;26.20;29.73
11395;BME280;5753;54.402;10.220;2023-04-21T12:06:41;102107.44;;;22.88;33.55
11395;BME280;5753;54.402;10.220;2023-04-21T12:09:07;102108.16;;;26.79;28.80
11395;BME280;5753;54.402;10.220;2023-04-21T12:11:41;102109.38;;;25.78;30.63
11395;BME280;5753;54.402;10.220;2023-04-21T12:14:08;102097.59;;;26.20;29.74
11395;BME280;5753;54.402;10.220;2023-04-21T12:16:36;102099.06;;;27.42;27.87
11395;BME280;5753;54.402;10.220;2023-04-21T12:19:03;102094.00;;;26.54;29.11
11395;BME280;5753;54.402;10.220;2023-04-21T12:21:29;102093.88;;;27.89;27.68
11395;BME280;5753;54.402;10.220;2023-04-21T12:23:56;102092.84;;;27.43;27.76
11395;BME280;5753;54.402;10.220;2023-04-21T12:26:22;102091.63;;;28.03;26.57
11395;BME280;5753;54.402;10.220;2023-04-21T12:28:52;102090.41;;;28.35;26.58
11395;BME280;5753;54.402;10.220;2023-04-21T12:31:18;102083.19;;;28.84;25.84
11395;BME280;5753;54.402;10.220;2023-04-21T12:33:44;102080.34;;;30.12;23.54
11395;BME280;5753;54.402;10.220;2023-04-21T12:36:10;102083.16;;;27.42;26.77
11395;BME280;5753;54.402;10.220;2023-04-21T12:38:37;102070.88;;;28.81;25.22
11395;BME280;5753;54.402;10.220;2023-04-21T12:41:03;102073.44;;;28.41;25.40
11395;BME280;5753;54.402;10.220;2023-04-21T12:43:30;102077.97;;;27.14;25.91
11395;BME280;5753;54.402;10.220;2023-04-21T12:45:56;102081.69;;;24.87;29.39
11395;BME280;5753;54.402;10.220;2023-04-21T12:48:23;102067.00;;;28.68;25.99
11395;BME280;5753;54.402;10.220;2023-04-21T12:50:49;102070.78;;;28.84;25.54
11395;BME280;5753;54.402;10.220;2023-04-21T12:53:15;102064.59;;;30.45;23.73